.
WxDataArchive / Data Records for 2013-03-29
2013-03-28 March 2013 2013-03-30

Data Records for Friday, 29 March 2013

Time	Temp	Chill	HIndex	Humid	Dewpt	 Wind 	HiWind	WindDir	Rain 	Barom 
-----	----	-----	------	-----	-----	------	------	-------	-----	----- 
00:00	35.8	35.8	35.8	70	27.0	0	0	---	0.00	30.309 
00:05	35.5	35.5	35.5	71	27.0	0	0	---	0.00	30.309 
00:10	35.3	35.3	35.3	71	26.9	0	0	---	0.00	30.309 
00:15	35.0	35.0	35.0	72	26.9	0	0	---	0.00	30.306 
00:20	34.9	34.9	34.9	72	26.8	0	0	---	0.00	30.306 
00:25	34.7	34.7	34.7	73	26.9	0	0	---	0.00	30.306 
00:30	34.4	34.4	34.4	73	26.7	0	0	---	0.00	30.304 
00:35	34.3	34.3	34.3	73	26.6	0	0	---	0.00	30.304 
00:40	33.8	33.8	33.8	73	26.1	0	0	---	0.00	30.304 
00:45	33.5	33.5	33.5	74	26.1	0	0	---	0.00	30.305 
00:50	33.2	33.2	33.2	75	26.2	0	0	---	0.00	30.305 
00:55	32.9	32.9	32.9	75	25.9	0	0	---	0.00	30.305 
01:00	32.9	32.9	32.9	76	26.2	0	0	---	0.00	30.307 
01:05	32.8	32.8	32.8	77	26.4	0	0	---	0.00	30.307 
01:10	32.5	32.5	32.5	77	26.1	0	0	---	0.00	30.307 
01:15	32.5	32.5	32.5	78	26.4	0	0	---	0.00	30.308 
01:20	32.5	32.5	32.5	78	26.4	0	0	---	0.00	30.308 
01:25	32.5	32.5	32.5	78	26.4	0	0	---	0.00	30.308 
01:30	32.5	32.5	32.5	79	26.7	0	0	---	0.00	30.306 
01:35	32.7	32.7	32.7	79	26.9	0	0	---	0.00	30.306 
01:40	32.5	32.5	32.5	79	26.7	0	0	---	0.00	30.306 
01:45	32.4	32.4	32.4	79	26.6	0	0	---	0.00	30.307 
01:50	32.2	32.2	32.2	79	26.4	0	0	---	0.00	30.307 
01:55	32.1	32.1	32.1	79	26.3	0	0	---	0.00	30.307 
02:00	31.9	31.9	31.9	79	26.1	0	0	---	0.00	30.307 
02:05	31.6	31.6	31.6	79	25.8	0	0	---	0.00	30.307 
02:10	31.5	31.5	31.5	79	25.8	0	0	---	0.00	30.307 
02:15	31.3	31.3	31.3	80	25.9	0	0	---	0.00	30.307 
02:20	31.2	31.2	31.2	80	25.8	0	0	---	0.00	30.307 
02:25	31.0	31.0	31.0	81	25.9	0	0	---	0.00	30.307 
02:30	30.7	30.7	30.7	81	25.6	0	0	---	0.00	30.308 
02:35	30.6	30.6	30.6	81	25.5	0	0	---	0.00	30.308 
02:40	30.3	30.3	30.3	81	25.2	0	0	---	0.00	30.308 
02:45	30.1	30.1	30.1	81	25.0	0	0	---	0.00	30.306 
02:50	29.8	29.8	29.8	81	24.7	0	0	---	0.00	30.306 
02:55	29.7	29.7	29.7	82	24.9	0	0	---	0.00	30.306 
03:00	29.5	29.5	29.5	82	24.7	0	0	---	0.00	30.305 
03:05	29.3	29.3	29.3	83	24.8	0	0	---	0.00	30.305 
03:10	29.1	29.1	29.1	83	24.6	0	0	---	0.00	30.305 
03:15	29.0	29.0	29.0	83	24.5	0	0	---	0.00	30.307 
03:20	28.7	28.7	28.7	83	24.2	0	0	---	0.00	30.307 
03:25	28.5	28.5	28.5	83	24.0	0	0	---	0.00	30.307 
03:30	28.4	28.4	28.4	84	24.2	0	0	---	0.00	30.307 
03:35	28.2	28.2	28.2	84	24.0	0	0	---	0.00	30.307 
03:40	27.9	27.9	27.9	84	23.7	0	0	---	0.00	30.307 
03:45	27.8	27.8	27.8	84	23.6	0	0	---	0.00	30.304 
03:50	27.8	27.8	27.8	84	23.6	0	0	---	0.00	30.304 
03:55	27.6	27.6	27.6	84	23.4	0	0	---	0.00	30.304 
04:00	27.5	27.5	27.5	85	23.6	0	0	---	0.00	30.300 
04:05	27.3	27.3	27.3	85	23.4	0	0	---	0.00	30.300 
04:10	27.3	27.3	27.3	85	23.4	0	0	---	0.00	30.300 
04:15	27.3	27.3	27.3	86	23.7	0	0	---	0.00	30.298 
04:20	27.2	27.2	27.2	86	23.6	0	0	---	0.00	30.298 
04:25	27.2	27.2	27.2	86	23.6	0	0	---	0.00	30.298 
04:30	27.2	27.2	27.2	86	23.6	0	0	---	0.00	30.298 
04:35	27.2	27.2	27.2	86	23.6	0	0	---	0.00	30.298 
04:40	27.0	27.0	27.0	86	23.4	0	0	---	0.00	30.298 
04:45	26.9	26.9	26.9	86	23.3	0	0	---	0.00	30.300 
04:50	26.9	26.9	26.9	86	23.3	0	0	---	0.00	30.300 
04:55	26.7	26.7	26.7	87	23.4	0	0	---	0.00	30.300 
05:00	26.6	26.6	26.6	87	23.3	0	0	---	0.00	30.299 
05:05	26.6	26.6	26.6	87	23.3	0	0	---	0.00	30.299 
05:10	26.4	26.4	26.4	87	23.1	0	0	---	0.00	30.299 
05:15	26.4	26.4	26.4	87	23.1	0	0	---	0.00	30.298 
05:20	26.3	26.3	26.3	87	23.0	0	0	---	0.00	30.298 
05:25	26.1	26.1	26.1	87	22.8	0	0	---	0.00	30.298 
05:30	26.0	26.0	26.0	87	22.7	0	0	---	0.00	30.295 
05:35	25.8	25.8	25.8	87	22.5	0	0	---	0.00	30.295 
05:40	25.8	25.8	25.8	87	22.5	0	0	---	0.00	30.295 
05:45	25.7	25.7	25.7	88	22.6	0	0	---	0.00	30.293 
05:50	25.6	25.6	25.6	88	22.5	0	0	---	0.00	30.293 
05:55	25.6	25.6	25.6	88	22.5	0	0	---	0.00	30.293 
06:00	25.6	25.6	25.6	88	22.5	0	0	---	0.00	30.285 
06:05	25.4	25.4	25.4	88	22.4	0	0	---	0.00	30.285 
06:10	25.4	25.4	25.4	88	22.4	0	0	---	0.00	30.285 
06:15	25.4	25.4	25.4	88	22.4	0	0	---	0.00	30.288 
06:20	25.3	25.3	25.3	88	22.3	0	0	---	0.00	30.288 
06:25	25.4	25.4	25.4	88	22.4	0	0	---	0.00	30.288 
06:30	25.4	25.4	25.4	88	22.4	0	0	---	0.00	30.292 
06:35	25.4	25.4	25.4	88	22.4	0	0	---	0.00	30.292 
06:40	25.3	25.3	25.3	88	22.3	0	0	---	0.00	30.292 
06:45	25.1	25.1	25.1	88	22.1	0	0	---	0.00	30.293 
06:50	25.1	25.1	25.1	88	22.1	0	0	---	0.00	30.293 
06:55	25.0	25.0	25.0	88	22.0	0	0	---	0.00	30.293 
07:00	24.8	24.8	24.8	88	21.8	0	0	---	0.00	30.295 
07:05	24.8	24.8	24.8	88	21.8	0	0	---	0.00	30.295 
07:10	24.7	24.7	24.7	89	21.9	0	0	---	0.00	30.295 
07:15	24.7	24.7	24.7	89	21.9	0	0	---	0.00	30.296 
07:20	24.7	24.7	24.7	89	21.9	0	0	---	0.00	30.296 
07:25	24.7	24.7	24.7	89	21.9	0	0	---	0.00	30.296 
07:30	24.7	24.7	24.7	89	21.9	0	0	---	0.00	30.301 
07:35	24.5	24.5	24.5	89	21.7	0	0	---	0.00	30.301 
07:40	24.5	24.5	24.5	89	21.7	0	0	---	0.00	30.301 
07:45	24.4	24.4	24.4	89	21.6	0	0	---	0.00	30.304 
07:50	24.4	24.4	24.4	89	21.6	0	0	---	0.00	30.304 
07:55	24.5	24.5	24.5	89	21.7	0	0	---	0.00	30.304 
08:00	24.7	24.7	24.7	89	21.9	0	0	---	0.00	30.305 
08:05	24.8	24.8	24.8	90	22.3	0	0	---	0.00	30.305 
08:10	25.3	25.3	25.3	90	22.8	0	0	---	0.00	30.305 
08:15	25.6	25.6	25.6	90	23.1	0	0	---	0.00	30.317 
08:20	25.8	25.8	25.8	90	23.3	0	0	---	0.00	30.317 
08:25	26.1	26.1	26.1	90	23.6	0	0	---	0.00	30.317 
08:30	26.6	26.6	26.6	90	24.1	0	0	---	0.00	30.320 
08:35	27.2	27.2	27.2	90	24.7	0	0	---	0.00	30.320 
08:40	27.8	27.8	27.8	90	25.3	0	0	---	0.00	30.320 
08:45	28.4	28.4	28.4	90	25.8	0	0	---	0.00	30.322 
08:50	28.8	28.8	28.8	90	26.2	0	0	---	0.00	30.322 
08:55	29.3	29.3	29.3	90	26.7	0	0	---	0.00	30.322 
09:00	29.7	29.7	29.7	90	27.1	0	0	---	0.00	30.319 
09:05	30.4	30.4	30.4	90	27.8	0	0	---	0.00	30.319 
09:10	31.2	31.2	31.2	89	28.3	0	0	---	0.00	30.319 
09:15	32.1	32.1	32.1	87	28.7	0	1	270	0.00	30.316 
09:20	32.8	32.8	32.8	84	28.5	0	1	270	0.00	30.316 
09:25	33.7	33.7	33.7	82	28.8	0	0	---	0.00	30.316 
09:30	34.4	34.4	34.4	77	27.9	0	0	---	0.00	30.314 
09:35	35.0	35.0	35.0	71	26.6	0	1	270	0.00	30.314 
09:40	35.8	35.8	35.8	68	26.3	0	1	270	0.00	30.314 
09:45	36.5	36.5	36.5	64	25.5	0	0	---	0.00	30.315 
09:50	37.0	37.0	37.0	60	24.4	0	0	---	0.00	30.315 
09:55	37.6	37.6	37.6	58	24.2	0	1	270	0.00	30.315 
10:00	38.3	38.3	38.3	54	23.1	0	1	270	0.00	30.320 
10:05	39.2	39.2	39.2	54	24.0	0	0	---	0.00	30.320 
10:10	40.1	40.1	40.1	50	23.0	0	2	270	0.00	30.320 
10:15	41.1	41.1	41.1	48	22.9	0	1	270	0.00	30.319 
10:20	41.9	41.9	41.9	45	22.1	0	2	270	0.00	30.319 
10:25	42.1	42.1	42.1	43	21.2	1	2	270	0.00	30.319 
10:30	42.1	42.1	42.1	44	21.8	0	2	270	0.00	30.319 
10:35	42.5	42.5	42.5	43	21.6	0	1	270	0.00	30.319 
10:40	43.1	43.1	43.1	44	22.7	0	1	270	0.00	30.319 
10:45	43.6	43.6	43.6	43	22.6	0	2	270	0.00	30.319 
10:50	43.8	43.8	43.8	39	20.5	0	2	270	0.00	30.319 
10:55	43.5	43.5	43.5	41	21.4	0	3	270	0.00	30.319 
11:00	43.3	43.3	43.3	43	22.3	0	2	270	0.00	30.322 
11:05	43.5	43.5	43.5	40	20.8	0	2	270	0.00	30.322 
11:10	43.5	43.5	43.5	40	20.8	1	3	270	0.00	30.322 
11:15	43.8	43.8	43.8	42	22.2	0	2	270	0.00	30.322 
11:20	44.1	44.1	44.1	41	21.9	2	5	90	0.00	30.322 
11:25	44.3	44.3	44.3	41	22.1	1	3	90	0.00	30.322 
11:30	44.5	44.5	44.5	39	21.1	1	3	90	0.00	30.321 
11:35	44.9	44.9	44.9	41	22.6	0	2	90	0.00	30.321 
11:40	45.8	45.8	45.8	42	24.0	0	1	90	0.00	30.321 
11:45	45.7	45.7	45.7	37	20.9	1	3	90	0.00	30.318 
11:50	46.0	46.0	46.0	43	24.8	0	2	90	0.00	30.318 
11:55	46.2	46.2	46.2	41	23.8	1	3	90	0.00	30.318 
12:00	46.2	46.2	46.2	42	24.4	0	2	45	0.00	30.313 
12:05	46.4	46.4	46.4	38	22.2	0	1	45	0.00	30.313 
12:10	46.8	46.8	46.8	40	23.8	0	2	22	0.00	30.313 
12:15	47.4	47.4	47.4	39	23.7	1	3	22	0.00	30.309 
12:20	47.7	47.7	47.7	37	22.7	1	3	135	0.00	30.309 
12:25	47.7	47.7	47.7	38	23.4	1	4	248	0.00	30.309 
12:30	47.9	47.9	47.9	37	22.9	1	3	248	0.00	30.308 
12:35	47.9	47.9	47.9	37	22.9	1	4	338	0.00	30.308 
12:40	48.0	48.0	48.0	38	23.6	0	3	338	0.00	30.308 
12:45	48.5	48.5	48.5	38	24.1	1	5	248	0.00	30.300 
12:50	48.6	48.6	48.6	35	22.2	1	4	248	0.00	30.300 
12:55	48.8	48.8	48.8	36	23.0	1	2	248	0.00	30.300 
13:00	48.8	48.8	48.8	35	22.4	2	7	315	0.00	30.292 
13:05	48.5	48.5	48.5	34	21.4	1	3	292	0.00	30.292 
13:10	48.8	48.8	48.8	36	23.0	1	4	248	0.00	30.292 
13:15	48.8	48.8	48.8	37	23.7	1	6	248	0.00	30.293 
13:20	48.8	48.8	48.8	37	23.7	1	4	315	0.00	30.293 
13:25	49.1	49.1	49.1	35	22.6	1	5	248	0.00	30.293 
13:30	48.9	48.9	48.9	36	23.1	1	4	0	0.00	30.288 
13:35	49.1	49.1	49.1	37	24.0	2	5	315	0.00	30.288 
13:40	49.2	49.2	49.2	35	22.7	1	2	248	0.00	30.288 
13:45	49.6	49.6	49.6	36	23.8	1	4	292	0.00	30.278 
13:50	49.8	49.8	49.8	36	23.9	2	4	248	0.00	30.278 
13:55	49.9	49.9	49.9	35	23.3	1	3	338	0.00	30.278 
14:00	50.2	50.2	50.2	37	24.9	1	4	270	0.00	30.274 
14:05	50.8	50.8	50.8	34	23.5	2	4	270	0.00	30.274 
14:10	51.0	51.0	51.0	34	23.6	2	5	248	0.00	30.274 
14:15	50.8	50.8	50.8	35	24.1	2	4	248	0.00	30.267 
14:20	50.4	50.4	50.4	33	22.4	1	3	338	0.00	30.267 
14:25	50.7	50.7	50.7	35	24.1	1	3	338	0.00	30.267 
14:30	51.1	51.1	51.1	35	24.4	1	3	248	0.00	30.262 
14:35	51.4	51.4	51.4	32	22.5	2	5	270	0.00	30.262 
14:40	51.3	51.3	51.3	34	23.9	1	6	270	0.00	30.262 
14:45	51.4	51.4	51.4	35	24.7	2	4	315	0.00	30.258 
14:50	51.7	51.7	51.7	34	24.2	1	3	248	0.00	30.258 
14:55	51.7	51.7	51.7	31	22.1	2	5	270	0.00	30.258 
15:00	51.9	51.9	51.9	31	22.2	2	4	270	0.00	30.250 
15:05	51.6	51.6	51.6	31	22.0	1	3	315	0.00	30.250 
15:10	51.6	51.6	51.6	29	20.4	1	4	270	0.00	30.250 
15:15	51.7	51.7	51.7	30	21.3	2	5	292	0.00	30.246 
15:20	52.0	52.0	52.0	32	23.1	1	3	315	0.00	30.246 
15:25	52.5	52.5	52.5	33	24.2	1	3	225	0.00	30.246 
15:30	52.6	52.6	52.6	31	22.8	1	3	225	0.00	30.244 
15:35	52.5	52.5	52.5	30	22.0	1	5	270	0.00	30.244 
15:40	52.2	52.2	52.2	29	20.9	2	5	270	0.00	30.244 
15:45	52.0	52.0	52.0	31	22.3	1	3	248	0.00	30.238 
15:50	52.0	52.0	52.0	29	20.7	2	6	248	0.00	30.238 
15:55	51.4	51.4	51.4	29	20.2	2	5	338	0.00	30.238 
16:00	51.3	51.3	51.3	32	22.5	1	3	315	0.00	30.234 
16:05	51.6	51.6	51.6	31	22.0	2	5	315	0.00	30.234 
16:10	52.2	52.2	52.2	31	22.5	1	3	292	0.00	30.234 
16:15	52.6	52.6	52.6	30	22.1	1	4	225	0.00	30.232 
16:20	52.2	52.2	52.2	30	21.7	2	7	270	0.00	30.232 
16:25	51.7	51.7	51.7	30	21.3	2	5	338	0.00	30.232 
16:30	51.4	51.4	51.4	30	21.0	1	4	338	0.00	30.232 
16:35	51.4	51.4	51.4	31	21.8	1	3	270	0.00	30.232 
16:40	51.7	51.7	51.7	29	20.5	2	3	292	0.00	30.232 
16:45	51.9	51.9	51.9	30	21.5	2	4	248	0.00	30.230 
16:50	51.9	51.9	51.9	30	21.5	2	5	292	0.00	30.230 
16:55	51.7	51.7	51.7	30	21.3	1	4	248	0.00	30.230 
17:00	51.6	51.6	51.6	31	22.0	2	6	338	0.00	30.230 
17:05	51.1	51.1	51.1	29	20.0	1	3	315	0.00	30.230 
17:10	51.3	51.3	51.3	31	21.7	1	4	0	0.00	30.230 
17:15	51.4	51.4	51.4	30	21.0	2	5	315	0.00	30.229 
17:20	51.4	51.4	51.4	30	21.0	1	3	315	0.00	30.229 
17:25	51.3	51.3	51.3	30	20.9	1	4	0	0.00	30.229 
17:30	51.3	51.3	51.3	29	20.1	1	3	292	0.00	30.225 
17:35	51.6	51.6	51.6	30	21.2	2	5	270	0.00	30.225 
17:40	51.6	51.6	51.6	27	18.7	1	3	315	0.00	30.225 
17:45	51.4	51.4	51.4	27	18.6	1	3	292	0.00	30.225 
17:50	51.4	51.4	51.4	27	18.6	1	3	315	0.00	30.225 
17:55	51.6	51.6	51.6	28	19.6	1	3	315	0.00	30.225 
18:00	51.7	51.7	51.7	29	20.5	2	4	292	0.00	30.222 
18:05	51.7	51.7	51.7	29	20.5	1	3	292	0.00	30.222 
18:10	51.7	51.7	51.7	29	20.5	1	3	292	0.00	30.222 
18:15	51.7	51.7	51.7	29	20.5	2	5	248	0.00	30.226 
18:20	51.4	51.4	51.4	28	19.4	1	4	315	0.00	30.226 
18:25	51.3	51.3	51.3	30	20.9	0	2	315	0.00	30.226 
18:30	51.3	51.3	51.3	31	21.7	1	10	315	0.00	30.222 
18:35	51.1	51.1	51.1	30	20.8	1	3	270	0.00	30.222 
18:40	51.0	51.0	51.0	30	20.7	0	2	248	0.00	30.222 
18:45	50.8	50.8	50.8	30	20.5	1	3	315	0.00	30.222 
18:50	50.7	50.7	50.7	30	20.4	1	4	315	0.00	30.222 
18:55	50.5	50.5	50.5	29	19.4	1	3	338	0.00	30.222 
19:00	50.5	50.5	50.5	30	20.2	1	2	248	0.00	30.222 
19:05	50.4	50.4	50.4	30	20.2	1	3	248	0.00	30.222 
19:10	50.2	50.2	50.2	30	20.0	0	2	315	0.00	30.222 
19:15	49.9	49.9	49.9	30	19.7	1	3	315	0.00	30.224 
19:20	49.9	49.9	49.9	29	18.9	0	2	315	0.00	30.224 
19:25	49.8	49.8	49.8	30	19.6	1	2	338	0.00	30.224 
19:30	49.6	49.6	49.6	30	19.5	1	4	270	0.00	30.226 
19:35	49.5	49.5	49.5	31	20.1	1	2	270	0.00	30.226 
19:40	49.4	49.4	49.4	30	19.3	1	3	270	0.00	30.226 
19:45	49.1	49.1	49.1	30	19.0	1	4	338	0.00	30.226 
19:50	48.8	48.8	48.8	30	18.8	1	2	338	0.00	30.226 
19:55	48.5	48.5	48.5	30	18.5	0	2	315	0.00	30.226 
20:00	48.2	48.2	48.2	31	19.0	0	2	315	0.00	30.231 
20:05	47.9	47.9	47.9	31	18.7	0	3	270	0.00	30.231 
20:10	47.6	47.6	47.6	31	18.5	0	1	270	0.00	30.231 
20:15	47.1	47.1	47.1	32	18.8	0	1	270	0.00	30.230 
20:20	46.8	46.8	46.8	32	18.5	0	2	270	0.00	30.230 
20:25	46.5	46.5	46.5	33	19.0	0	1	270	0.00	30.230 
20:30	46.2	46.2	46.2	33	18.7	0	1	270	0.00	30.233 
20:35	46.0	46.0	46.0	34	19.2	0	1	270	0.00	30.233 
20:40	45.7	45.7	45.7	34	19.0	0	1	270	0.00	30.233 
20:45	45.4	45.4	45.4	35	19.4	0	1	270	0.00	30.236 
20:50	45.1	45.1	45.1	35	19.1	0	1	270	0.00	30.236 
20:55	44.9	44.9	44.9	36	19.6	0	1	270	0.00	30.236 
21:00	44.6	44.6	44.6	36	19.3	0	1	270	0.00	30.243 
21:05	44.2	44.2	44.2	37	19.6	0	0	---	0.00	30.243 
21:10	43.9	43.9	43.9	37	19.3	0	1	270	0.00	30.243 
21:15	43.8	43.8	43.8	38	19.9	0	1	270	0.00	30.239 
21:20	43.6	43.6	43.6	38	19.7	0	0	---	0.00	30.239 
21:25	43.3	43.3	43.3	38	19.4	0	1	270	0.00	30.239 
21:30	43.2	43.2	43.2	38	19.3	0	1	270	0.00	30.245 
21:35	43.1	43.1	43.1	38	19.2	0	1	270	0.00	30.245 
21:40	42.9	42.9	42.9	38	19.1	0	0	---	0.00	30.245 
21:45	42.6	42.6	42.6	38	18.8	0	0	---	0.00	30.245 
21:50	42.3	42.3	42.3	39	19.1	0	0	---	0.00	30.245 
21:55	41.9	41.9	41.9	39	18.8	0	0	---	0.00	30.245 
22:00	41.5	41.5	41.5	39	18.4	0	0	---	0.00	30.245 
22:05	41.2	41.2	41.2	39	18.1	0	0	---	0.00	30.245 
22:10	40.9	40.9	40.9	40	18.5	0	0	---	0.00	30.245 
22:15	40.6	40.6	40.6	41	18.8	0	0	---	0.00	30.243 
22:20	40.1	40.1	40.1	42	18.9	0	0	---	0.00	30.243 
22:25	39.6	39.6	39.6	43	19.0	0	0	---	0.00	30.243 
22:30	39.2	39.2	39.2	44	19.1	0	0	---	0.00	30.247 
22:35	38.8	38.8	38.8	45	19.3	0	0	---	0.00	30.247 
22:40	38.3	38.3	38.3	45	18.8	0	0	---	0.00	30.247 
22:45	37.9	37.9	37.9	46	19.0	0	0	---	0.00	30.247 
22:50	37.5	37.5	37.5	47	19.1	0	0	---	0.00	30.247 
22:55	37.0	37.0	37.0	48	19.2	0	0	---	0.00	30.247 
23:00	36.8	36.8	36.8	48	19.0	0	0	---	0.00	30.249 
23:05	36.6	36.6	36.6	50	19.7	0	0	---	0.00	30.249 
23:10	36.3	36.3	36.3	51	19.9	0	0	---	0.00	30.249 
23:15	36.2	36.2	36.2	51	19.8	0	0	---	0.00	30.246 
23:20	35.9	35.9	35.9	52	20.0	0	0	---	0.00	30.246 
23:25	35.6	35.6	35.6	52	19.7	0	0	---	0.00	30.246 
23:30	35.5	35.5	35.5	52	19.6	0	0	---	0.00	30.245 
23:35	35.2	35.2	35.2	53	19.8	0	0	---	0.00	30.245 
23:40	35.0	35.0	35.0	54	20.1	0	0	---	0.00	30.245 
23:45	34.9	34.9	34.9	55	20.4	0	0	---	0.00	30.245 
23:50	34.7	34.7	34.7	55	20.2	0	0	---	0.00	30.245 
23:55	34.6	34.6	34.6	56	20.5	0	0	---	0.00	30.245 

CoCoRaHS
IN-AL-39
A2 Web Hosting
Creative Commons License
GoDaddy
search engine by freefind advanced

loaded 2018-11-17 00:39:04 • last modified 2010-11-18 10:43:29
Privacy PolicyDisclaimer
• wx.awcolley.com is powered by PmWiki v.2002016 •
• all content (unless otherwise noted) © 2018 A W Colley